sensor_id;sensor_type;location;lat;lon;timestamp;P1;durP1;ratioP1;P2;durP2;ratioP2
69502;SDS011;56704;54.242;12.442;2024-02-23T00:00:22;3.03;;;0.70;;
69502;SDS011;56704;54.242;12.442;2024-02-23T00:02:49;2.17;;;0.60;;
69502;SDS011;56704;54.242;12.442;2024-02-23T00:05:17;2.23;;;0.50;;
69502;SDS011;56704;54.242;12.442;2024-02-23T00:07:44;2.50;;;0.50;;
69502;SDS011;56704;54.242;12.442;2024-02-23T00:10:10;2.30;;;0.65;;
69502;SDS011;56704;54.242;12.442;2024-02-23T00:12:37;2.85;;;0.80;;
69502;SDS011;56704;54.242;12.442;2024-02-23T00:15:04;2.47;;;0.75;;
69502;SDS011;56704;54.242;12.442;2024-02-23T00:17:32;3.70;;;0.70;;
69502;SDS011;56704;54.242;12.442;2024-02-23T00:19:58;2.80;;;0.93;;
69502;SDS011;56704;54.242;12.442;2024-02-23T00:22:26;2.38;;;0.60;;
69502;SDS011;56704;54.242;12.442;2024-02-23T00:24:53;2.00;;;0.63;;
69502;SDS011;56704;54.242;12.442;2024-02-23T00:27:19;2.80;;;0.65;;
69502;SDS011;56704;54.242;12.442;2024-02-23T00:29:46;2.33;;;0.70;;
69502;SDS011;56704;54.242;12.442;2024-02-23T00:32:12;1.83;;;0.50;;
69502;SDS011;56704;54.242;12.442;2024-02-23T00:34:39;2.13;;;0.60;;
69502;SDS011;56704;54.242;12.442;2024-02-23T00:37:06;2.00;;;0.60;;
69502;SDS011;56704;54.242;12.442;2024-02-23T00:39:34;1.35;;;0.30;;
69502;SDS011;56704;54.242;12.442;2024-02-23T00:42:01;1.63;;;0.30;;
69502;SDS011;56704;54.242;12.442;2024-02-23T00:44:28;1.58;;;0.30;;
69502;SDS011;56704;54.242;12.442;2024-02-23T00:46:54;2.00;;;0.30;;
69502;SDS011;56704;54.242;12.442;2024-02-23T00:49:23;1.88;;;0.30;;
69502;SDS011;56704;54.242;12.442;2024-02-23T00:51:49;1.10;;;0.10;;
69502;SDS011;56704;54.242;12.442;2024-02-23T00:54:16;1.00;;;0.10;;
69502;SDS011;56704;54.242;12.442;2024-02-23T00:56:44;1.27;;;0.20;;
69502;SDS011;56704;54.242;12.442;2024-02-23T00:59:11;0.93;;;0.20;;
69502;SDS011;56704;54.242;12.442;2024-02-23T01:01:38;1.08;;;0.10;;
69502;SDS011;56704;54.242;12.442;2024-02-23T01:04:05;1.25;;;0.20;;
69502;SDS011;56704;54.242;12.442;2024-02-23T01:06:31;1.67;;;0.23;;
69502;SDS011;56704;54.242;12.442;2024-02-23T01:08:58;1.20;;;0.10;;
69502;SDS011;56704;54.242;12.442;2024-02-23T01:11:24;0.80;;;0.10;;
69502;SDS011;56704;54.242;12.442;2024-02-23T01:13:52;1.13;;;0.10;;
69502;SDS011;56704;54.242;12.442;2024-02-23T01:16:19;0.52;;;0.10;;
69502;SDS011;56704;54.242;12.442;2024-02-23T01:18:45;1.10;;;0.20;;
69502;SDS011;56704;54.242;12.442;2024-02-23T01:21:12;1.50;;;0.38;;
69502;SDS011;56704;54.242;12.442;2024-02-23T01:23:39;1.30;;;0.30;;
69502;SDS011;56704;54.242;12.442;2024-02-23T01:26:06;1.05;;;0.20;;
69502;SDS011;56704;54.242;12.442;2024-02-23T01:28:32;1.90;;;0.28;;
69502;SDS011;56704;54.242;12.442;2024-02-23T01:31:00;1.10;;;0.20;;
69502;SDS011;56704;54.242;12.442;2024-02-23T01:33:27;1.38;;;0.13;;
69502;SDS011;56704;54.242;12.442;2024-02-23T01:35:53;1.73;;;0.10;;
69502;SDS011;56704;54.242;12.442;2024-02-23T01:38:22;1.80;;;0.20;;
69502;SDS011;56704;54.242;12.442;2024-02-23T01:40:50;1.58;;;0.20;;
69502;SDS011;56704;54.242;12.442;2024-02-23T01:43:16;1.00;;;0.20;;
69502;SDS011;56704;54.242;12.442;2024-02-23T01:45:43;1.63;;;0.20;;
69502;SDS011;56704;54.242;12.442;2024-02-23T01:48:11;1.45;;;0.20;;
69502;SDS011;56704;54.242;12.442;2024-02-23T01:50:38;1.35;;;0.20;;
69502;SDS011;56704;54.242;12.442;2024-02-23T01:53:05;1.30;;;0.20;;
69502;SDS011;56704;54.242;12.442;2024-02-23T01:55:31;1.27;;;0.10;;
69502;SDS011;56704;54.242;12.442;2024-02-23T01:57:59;1.48;;;0.10;;
69502;SDS011;56704;54.242;12.442;2024-02-23T02:00:26;3.15;;;0.40;;
69502;SDS011;56704;54.242;12.442;2024-02-23T02:02:53;1.25;;;0.20;;
69502;SDS011;56704;54.242;12.442;2024-02-23T02:05:21;3.22;;;0.20;;
69502;SDS011;56704;54.242;12.442;2024-02-23T02:07:49;1.07;;;0.10;;
69502;SDS011;56704;54.242;12.442;2024-02-23T02:10:18;0.88;;;0.22;;
69502;SDS011;56704;54.242;12.442;2024-02-23T02:12:46;1.40;;;0.10;;
69502;SDS011;56704;54.242;12.442;2024-02-23T02:15:13;1.00;;;0.20;;
69502;SDS011;56704;54.242;12.442;2024-02-23T02:17:39;1.67;;;0.40;;
69502;SDS011;56704;54.242;12.442;2024-02-23T02:20:06;1.70;;;0.30;;
69502;SDS011;56704;54.242;12.442;2024-02-23T02:22:39;1.17;;;0.20;;
69502;SDS011;56704;54.242;12.442;2024-02-23T02:25:06;1.55;;;0.30;;
69502;SDS011;56704;54.242;12.442;2024-02-23T02:27:33;2.88;;;0.20;;
69502;SDS011;56704;54.242;12.442;2024-02-23T02:30:00;1.05;;;0.20;;
69502;SDS011;56704;54.242;12.442;2024-02-23T02:32:26;1.10;;;0.20;;
69502;SDS011;56704;54.242;12.442;2024-02-23T02:34:53;1.63;;;0.40;;
69502;SDS011;56704;54.242;12.442;2024-02-23T02:37:20;1.10;;;0.20;;
69502;SDS011;56704;54.242;12.442;2024-02-23T02:39:48;3.50;;;0.40;;
69502;SDS011;56704;54.242;12.442;2024-02-23T02:42:14;1.13;;;0.22;;
69502;SDS011;56704;54.242;12.442;2024-02-23T02:44:41;1.23;;;0.20;;
69502;SDS011;56704;54.242;12.442;2024-02-23T02:47:08;1.13;;;0.22;;
69502;SDS011;56704;54.242;12.442;2024-02-23T02:49:34;0.68;;;0.10;;
69502;SDS011;56704;54.242;12.442;2024-02-23T02:52:01;2.85;;;0.20;;
69502;SDS011;56704;54.242;12.442;2024-02-23T02:54:27;1.58;;;0.10;;
69502;SDS011;56704;54.242;12.442;2024-02-23T02:56:55;0.57;;;0.10;;
69502;SDS011;56704;54.242;12.442;2024-02-23T02:59:22;1.17;;;0.28;;
69502;SDS011;56704;54.242;12.442;2024-02-23T03:01:49;0.95;;;0.20;;
69502;SDS011;56704;54.242;12.442;2024-02-23T03:04:16;1.85;;;0.20;;
69502;SDS011;56704;54.242;12.442;2024-02-23T03:06:42;1.52;;;0.10;;
69502;SDS011;56704;54.242;12.442;2024-02-23T03:09:09;0.60;;;0.10;;
69502;SDS011;56704;54.242;12.442;2024-02-23T03:11:36;0.40;;;0.00;;
69502;SDS011;56704;54.242;12.442;2024-02-23T03:14:04;0.57;;;0.05;;
69502;SDS011;56704;54.242;12.442;2024-02-23T03:16:31;0.22;;;0.00;;
69502;SDS011;56704;54.242;12.442;2024-02-23T03:18:59;0.00;;;0.00;;
69502;SDS011;56704;54.242;12.442;2024-02-23T03:21:26;0.47;;;0.00;;
69502;SDS011;56704;54.242;12.442;2024-02-23T03:23:52;0.03;;;0.00;;
69502;SDS011;56704;54.242;12.442;2024-02-23T03:26:19;0.10;;;0.00;;
69502;SDS011;56704;54.242;12.442;2024-02-23T03:28:45;0.05;;;0.00;;
69502;SDS011;56704;54.242;12.442;2024-02-23T03:31:15;0.55;;;0.00;;
69502;SDS011;56704;54.242;12.442;2024-02-23T03:33:41;0.30;;;0.00;;
69502;SDS011;56704;54.242;12.442;2024-02-23T03:36:08;0.00;;;0.00;;
69502;SDS011;56704;54.242;12.442;2024-02-23T03:38:34;0.10;;;0.00;;
69502;SDS011;56704;54.242;12.442;2024-02-23T03:41:01;0.32;;;0.00;;
69502;SDS011;56704;54.242;12.442;2024-02-23T03:43:28;0.25;;;0.00;;
69502;SDS011;56704;54.242;12.442;2024-02-23T03:45:54;0.10;;;0.00;;
69502;SDS011;56704;54.242;12.442;2024-02-23T03:48:22;0.38;;;0.00;;
69502;SDS011;56704;54.242;12.442;2024-02-23T03:50:49;0.00;;;0.00;;
69502;SDS011;56704;54.242;12.442;2024-02-23T03:53:15;0.55;;;0.00;;
69502;SDS011;56704;54.242;12.442;2024-02-23T03:55:42;0.75;;;0.00;;
69502;SDS011;56704;54.242;12.442;2024-02-23T04:13:41;0.38;;;0.00;;
69502;SDS011;56704;54.242;12.442;2024-02-23T04:16:07;0.28;;;0.00;;
69502;SDS011;56704;54.242;12.442;2024-02-23T04:18:34;1.70;;;0.10;;
69502;SDS011;56704;54.242;12.442;2024-02-23T04:21:00;0.60;;;0.05;;
69502;SDS011;56704;54.242;12.442;2024-02-23T04:23:27;1.30;;;0.00;;
69502;SDS011;56704;54.242;12.442;2024-02-23T04:25:53;0.38;;;0.00;;
69502;SDS011;56704;54.242;12.442;2024-02-23T04:28:20;0.85;;;0.10;;
69502;SDS011;56704;54.242;12.442;2024-02-23T04:30:48;0.20;;;0.03;;
69502;SDS011;56704;54.242;12.442;2024-02-23T04:33:15;0.30;;;0.00;;
69502;SDS011;56704;54.242;12.442;2024-02-23T04:35:41;0.20;;;0.00;;
69502;SDS011;56704;54.242;12.442;2024-02-23T04:38:08;0.68;;;0.00;;
69502;SDS011;56704;54.242;12.442;2024-02-23T04:40:34;0.30;;;0.08;;
69502;SDS011;56704;54.242;12.442;2024-02-23T04:43:01;0.65;;;0.10;;
69502;SDS011;56704;54.242;12.442;2024-02-23T04:45:28;0.40;;;0.00;;
69502;SDS011;56704;54.242;12.442;2024-02-23T04:47:56;0.53;;;0.07;;
69502;SDS011;56704;54.242;12.442;2024-02-23T04:50:22;0.43;;;0.10;;
69502;SDS011;56704;54.242;12.442;2024-02-23T04:52:49;0.47;;;0.00;;
69502;SDS011;56704;54.242;12.442;2024-02-23T04:55:16;0.68;;;0.00;;
69502;SDS011;56704;54.242;12.442;2024-02-23T04:57:42;0.88;;;0.00;;
69502;SDS011;56704;54.242;12.442;2024-02-23T05:00:09;1.03;;;0.07;;
69502;SDS011;56704;54.242;12.442;2024-02-23T05:02:37;0.28;;;0.00;;
69502;SDS011;56704;54.242;12.442;2024-02-23T05:05:05;0.15;;;0.00;;
69502;SDS011;56704;54.242;12.442;2024-02-23T05:07:33;0.43;;;0.10;;
69502;SDS011;56704;54.242;12.442;2024-02-23T05:09:59;0.30;;;0.00;;
69502;SDS011;56704;54.242;12.442;2024-02-23T05:12:26;1.00;;;0.10;;
69502;SDS011;56704;54.242;12.442;2024-02-23T05:14:53;0.43;;;0.00;;
69502;SDS011;56704;54.242;12.442;2024-02-23T05:17:19;0.22;;;0.00;;
69502;SDS011;56704;54.242;12.442;2024-02-23T05:19:46;0.32;;;0.00;;
69502;SDS011;56704;54.242;12.442;2024-02-23T05:22:14;0.15;;;0.00;;
69502;SDS011;56704;54.242;12.442;2024-02-23T05:24:41;1.50;;;0.10;;
69502;SDS011;56704;54.242;12.442;2024-02-23T05:27:09;0.70;;;0.00;;
69502;SDS011;56704;54.242;12.442;2024-02-23T05:29:36;0.22;;;0.00;;
69502;SDS011;56704;54.242;12.442;2024-02-23T05:32:02;0.60;;;0.00;;
69502;SDS011;56704;54.242;12.442;2024-02-23T05:34:29;0.52;;;0.00;;
69502;SDS011;56704;54.242;12.442;2024-02-23T05:36:56;0.37;;;0.00;;
69502;SDS011;56704;54.242;12.442;2024-02-23T05:39:23;0.55;;;0.00;;
69502;SDS011;56704;54.242;12.442;2024-02-23T05:41:50;0.50;;;0.10;;
69502;SDS011;56704;54.242;12.442;2024-02-23T05:44:17;0.38;;;0.03;;
69502;SDS011;56704;54.242;12.442;2024-02-23T05:46:43;1.08;;;0.10;;
69502;SDS011;56704;54.242;12.442;2024-02-23T05:49:10;0.70;;;0.10;;
69502;SDS011;56704;54.242;12.442;2024-02-23T05:51:37;0.85;;;0.08;;
69502;SDS011;56704;54.242;12.442;2024-02-23T05:54:03;1.33;;;0.20;;
69502;SDS011;56704;54.242;12.442;2024-02-23T05:56:31;1.60;;;0.17;;
69502;SDS011;56704;54.242;12.442;2024-02-23T05:58:58;2.28;;;0.10;;
69502;SDS011;56704;54.242;12.442;2024-02-23T06:01:25;1.53;;;0.10;;
69502;SDS011;56704;54.242;12.442;2024-02-23T06:03:51;1.42;;;0.10;;
69502;SDS011;56704;54.242;12.442;2024-02-23T06:06:20;0.77;;;0.10;;
69502;SDS011;56704;54.242;12.442;2024-02-23T06:08:46;0.55;;;0.05;;
69502;SDS011;56704;54.242;12.442;2024-02-23T06:11:14;0.50;;;0.00;;
69502;SDS011;56704;54.242;12.442;2024-02-23T06:13:42;1.07;;;0.10;;
69502;SDS011;56704;54.242;12.442;2024-02-23T06:16:09;0.70;;;0.10;;
69502;SDS011;56704;54.242;12.442;2024-02-23T06:18:36;0.88;;;0.00;;
69502;SDS011;56704;54.242;12.442;2024-02-23T06:21:10;2.78;;;0.10;;
69502;SDS011;56704;54.242;12.442;2024-02-23T06:23:37;0.30;;;0.08;;
69502;SDS011;56704;54.242;12.442;2024-02-23T06:26:05;0.37;;;0.00;;
69502;SDS011;56704;54.242;12.442;2024-02-23T06:28:31;0.75;;;0.00;;
69502;SDS011;56704;54.242;12.442;2024-02-23T06:30:59;0.57;;;0.00;;
69502;SDS011;56704;54.242;12.442;2024-02-23T06:33:26;1.13;;;0.10;;
69502;SDS011;56704;54.242;12.442;2024-02-23T06:35:53;2.03;;;0.05;;
69502;SDS011;56704;54.242;12.442;2024-02-23T06:38:19;0.60;;;0.07;;
69502;SDS011;56704;54.242;12.442;2024-02-23T06:40:46;1.33;;;0.03;;
69502;SDS011;56704;54.242;12.442;2024-02-23T06:43:12;0.70;;;0.00;;
69502;SDS011;56704;54.242;12.442;2024-02-23T06:45:39;0.77;;;0.00;;
69502;SDS011;56704;54.242;12.442;2024-02-23T06:48:08;2.30;;;0.10;;
69502;SDS011;56704;54.242;12.442;2024-02-23T06:50:34;3.13;;;0.20;;
69502;SDS011;56704;54.242;12.442;2024-02-23T06:53:01;1.75;;;0.20;;
69502;SDS011;56704;54.242;12.442;2024-02-23T06:55:28;2.13;;;0.20;;
69502;SDS011;56704;54.242;12.442;2024-02-23T06:57:55;0.10;;;0.00;;
69502;SDS011;56704;54.242;12.442;2024-02-23T07:00:21;2.10;;;0.20;;
69502;SDS011;56704;54.242;12.442;2024-02-23T07:02:48;3.10;;;0.67;;
69502;SDS011;56704;54.242;12.442;2024-02-23T07:05:16;1.98;;;0.13;;
69502;SDS011;56704;54.242;12.442;2024-02-23T07:07:43;1.58;;;0.20;;
69502;SDS011;56704;54.242;12.442;2024-02-23T07:10:09;1.45;;;0.10;;
69502;SDS011;56704;54.242;12.442;2024-02-23T07:12:37;0.75;;;0.10;;
69502;SDS011;56704;54.242;12.442;2024-02-23T07:15:04;0.80;;;0.10;;
69502;SDS011;56704;54.242;12.442;2024-02-23T07:17:31;0.82;;;0.10;;
69502;SDS011;56704;54.242;12.442;2024-02-23T07:19:57;1.27;;;0.20;;
69502;SDS011;56704;54.242;12.442;2024-02-23T07:22:31;1.58;;;0.13;;
69502;SDS011;56704;54.242;12.442;2024-02-23T07:24:58;1.48;;;0.30;;
69502;SDS011;56704;54.242;12.442;2024-02-23T07:27:26;2.77;;;0.20;;
69502;SDS011;56704;54.242;12.442;2024-02-23T07:29:53;2.88;;;0.17;;
69502;SDS011;56704;54.242;12.442;2024-02-23T07:32:19;2.22;;;0.28;;
69502;SDS011;56704;54.242;12.442;2024-02-23T07:34:46;2.40;;;0.40;;
69502;SDS011;56704;54.242;12.442;2024-02-23T07:37:13;2.25;;;0.20;;
69502;SDS011;56704;54.242;12.442;2024-02-23T07:39:41;1.70;;;0.30;;
69502;SDS011;56704;54.242;12.442;2024-02-23T07:42:07;1.65;;;0.20;;
69502;SDS011;56704;54.242;12.442;2024-02-23T07:44:35;2.13;;;0.40;;
69502;SDS011;56704;54.242;12.442;2024-02-23T07:47:02;1.55;;;0.10;;
69502;SDS011;56704;54.242;12.442;2024-02-23T07:49:29;1.80;;;0.35;;
69502;SDS011;56704;54.242;12.442;2024-02-23T07:51:56;2.73;;;0.33;;
69502;SDS011;56704;54.242;12.442;2024-02-23T07:54:23;1.70;;;0.30;;
69502;SDS011;56704;54.242;12.442;2024-02-23T07:56:51;2.22;;;0.88;;
69502;SDS011;56704;54.242;12.442;2024-02-23T07:59:17;2.10;;;0.15;;
69502;SDS011;56704;54.242;12.442;2024-02-23T08:01:44;2.88;;;0.30;;
69502;SDS011;56704;54.242;12.442;2024-02-23T08:04:11;0.60;;;0.10;;
69502;SDS011;56704;54.242;12.442;2024-02-23T08:06:38;3.05;;;0.20;;
69502;SDS011;56704;54.242;12.442;2024-02-23T08:09:05;2.05;;;0.10;;
69502;SDS011;56704;54.242;12.442;2024-02-23T08:11:32;1.25;;;0.10;;
69502;SDS011;56704;54.242;12.442;2024-02-23T08:14:00;2.20;;;0.30;;
69502;SDS011;56704;54.242;12.442;2024-02-23T08:16:28;3.27;;;0.47;;
69502;SDS011;56704;54.242;12.442;2024-02-23T08:18:54;1.58;;;0.30;;
69502;SDS011;56704;54.242;12.442;2024-02-23T08:21:21;1.02;;;0.20;;
69502;SDS011;56704;54.242;12.442;2024-02-23T08:23:47;1.00;;;0.20;;
69502;SDS011;56704;54.242;12.442;2024-02-23T08:26:14;1.10;;;0.10;;
69502;SDS011;56704;54.242;12.442;2024-02-23T08:28:40;0.80;;;0.10;;
69502;SDS011;56704;54.242;12.442;2024-02-23T08:31:08;2.17;;;0.32;;
69502;SDS011;56704;54.242;12.442;2024-02-23T08:33:35;2.67;;;0.30;;
69502;SDS011;56704;54.242;12.442;2024-02-23T08:36:02;2.65;;;0.38;;
69502;SDS011;56704;54.242;12.442;2024-02-23T08:38:30;2.67;;;0.10;;
69502;SDS011;56704;54.242;12.442;2024-02-23T08:40:57;1.73;;;0.20;;
69502;SDS011;56704;54.242;12.442;2024-02-23T08:43:23;3.85;;;0.30;;
69502;SDS011;56704;54.242;12.442;2024-02-23T08:45:50;1.40;;;0.20;;
69502;SDS011;56704;54.242;12.442;2024-02-23T08:48:18;2.50;;;0.25;;
69502;SDS011;56704;54.242;12.442;2024-02-23T08:50:45;4.38;;;0.38;;
69502;SDS011;56704;54.242;12.442;2024-02-23T08:53:12;3.13;;;0.27;;
69502;SDS011;56704;54.242;12.442;2024-02-23T08:55:38;2.47;;;0.40;;
69502;SDS011;56704;54.242;12.442;2024-02-23T08:58:05;4.97;;;0.30;;
69502;SDS011;56704;54.242;12.442;2024-02-23T09:00:32;1.95;;;0.40;;
69502;SDS011;56704;54.242;12.442;2024-02-23T09:02:58;1.33;;;0.20;;
69502;SDS011;56704;54.242;12.442;2024-02-23T09:05:26;1.97;;;0.40;;
69502;SDS011;56704;54.242;12.442;2024-02-23T09:07:53;1.92;;;0.28;;
69502;SDS011;56704;54.242;12.442;2024-02-23T09:10:20;1.50;;;0.20;;
69502;SDS011;56704;54.242;12.442;2024-02-23T09:12:47;1.02;;;0.20;;
69502;SDS011;56704;54.242;12.442;2024-02-23T09:15:13;2.40;;;0.40;;
69502;SDS011;56704;54.242;12.442;2024-02-23T09:17:40;1.10;;;0.20;;
69502;SDS011;56704;54.242;12.442;2024-02-23T09:20:07;2.13;;;0.30;;
69502;SDS011;56704;54.242;12.442;2024-02-23T09:22:36;3.03;;;0.30;;
69502;SDS011;56704;54.242;12.442;2024-02-23T09:25:03;2.28;;;0.40;;
69502;SDS011;56704;54.242;12.442;2024-02-23T09:27:30;3.72;;;0.45;;
69502;SDS011;56704;54.242;12.442;2024-02-23T09:29:57;3.30;;;0.20;;
69502;SDS011;56704;54.242;12.442;2024-02-23T09:32:24;2.38;;;0.50;;
69502;SDS011;56704;54.242;12.442;2024-02-23T09:34:51;3.03;;;0.20;;
69502;SDS011;56704;54.242;12.442;2024-02-23T09:37:17;2.20;;;0.28;;
69502;SDS011;56704;54.242;12.442;2024-02-23T09:39:45;1.05;;;0.10;;
69502;SDS011;56704;54.242;12.442;2024-02-23T09:42:12;2.03;;;0.30;;
69502;SDS011;56704;54.242;12.442;2024-02-23T09:44:38;2.50;;;0.38;;
69502;SDS011;56704;54.242;12.442;2024-02-23T09:47:07;1.55;;;0.10;;
69502;SDS011;56704;54.242;12.442;2024-02-23T09:49:36;2.88;;;0.30;;
69502;SDS011;56704;54.242;12.442;2024-02-23T09:52:05;2.55;;;0.20;;
69502;SDS011;56704;54.242;12.442;2024-02-23T09:54:34;1.67;;;0.30;;
69502;SDS011;56704;54.242;12.442;2024-02-23T09:57:02;1.40;;;0.20;;
69502;SDS011;56704;54.242;12.442;2024-02-23T09:59:32;2.50;;;0.40;;
69502;SDS011;56704;54.242;12.442;2024-02-23T10:02:00;2.47;;;0.35;;
69502;SDS011;56704;54.242;12.442;2024-02-23T10:04:28;3.17;;;0.52;;
69502;SDS011;56704;54.242;12.442;2024-02-23T10:06:56;4.07;;;0.43;;
69502;SDS011;56704;54.242;12.442;2024-02-23T10:09:22;1.30;;;0.20;;
69502;SDS011;56704;54.242;12.442;2024-02-23T10:11:51;2.58;;;0.30;;
69502;SDS011;56704;54.242;12.442;2024-02-23T10:14:19;2.08;;;0.15;;
69502;SDS011;56704;54.242;12.442;2024-02-23T10:16:46;2.05;;;0.15;;
69502;SDS011;56704;54.242;12.442;2024-02-23T10:19:13;4.93;;;0.47;;
69502;SDS011;56704;54.242;12.442;2024-02-23T10:21:40;0.75;;;0.20;;
69502;SDS011;56704;54.242;12.442;2024-02-23T10:24:06;2.83;;;0.35;;
69502;SDS011;56704;54.242;12.442;2024-02-23T10:26:33;1.83;;;0.30;;
69502;SDS011;56704;54.242;12.442;2024-02-23T10:29:00;2.05;;;0.30;;
69502;SDS011;56704;54.242;12.442;2024-02-23T10:31:27;1.93;;;0.30;;
69502;SDS011;56704;54.242;12.442;2024-02-23T10:33:54;2.15;;;0.55;;
69502;SDS011;56704;54.242;12.442;2024-02-23T10:36:24;2.95;;;0.20;;
69502;SDS011;56704;54.242;12.442;2024-02-23T10:38:55;2.95;;;0.40;;
69502;SDS011;56704;54.242;12.442;2024-02-23T10:41:26;1.88;;;0.30;;
69502;SDS011;56704;54.242;12.442;2024-02-23T10:43:53;2.93;;;0.70;;
69502;SDS011;56704;54.242;12.442;2024-02-23T10:46:24;1.40;;;0.32;;
69502;SDS011;56704;54.242;12.442;2024-02-23T10:48:53;3.00;;;0.22;;
69502;SDS011;56704;54.242;12.442;2024-02-23T10:51:21;4.07;;;0.47;;
69502;SDS011;56704;54.242;12.442;2024-02-23T10:53:49;1.42;;;0.35;;
69502;SDS011;56704;54.242;12.442;2024-02-23T10:56:16;3.13;;;0.40;;
69502;SDS011;56704;54.242;12.442;2024-02-23T10:58:43;4.40;;;0.40;;
69502;SDS011;56704;54.242;12.442;2024-02-23T11:01:09;3.30;;;0.30;;
69502;SDS011;56704;54.242;12.442;2024-02-23T11:03:37;2.60;;;0.28;;
69502;SDS011;56704;54.242;12.442;2024-02-23T11:06:07;3.60;;;0.40;;
69502;SDS011;56704;54.242;12.442;2024-02-23T11:08:34;2.50;;;0.40;;
69502;SDS011;56704;54.242;12.442;2024-02-23T11:11:07;2.55;;;0.30;;
69502;SDS011;56704;54.242;12.442;2024-02-23T11:13:34;2.58;;;0.30;;
69502;SDS011;56704;54.242;12.442;2024-02-23T11:16:01;3.13;;;0.30;;
69502;SDS011;56704;54.242;12.442;2024-02-23T11:18:29;1.90;;;0.20;;
69502;SDS011;56704;54.242;12.442;2024-02-23T11:20:58;1.83;;;0.30;;
69502;SDS011;56704;54.242;12.442;2024-02-23T11:23:27;1.52;;;0.10;;
69502;SDS011;56704;54.242;12.442;2024-02-23T11:26:04;1.80;;;0.28;;
69502;SDS011;56704;54.242;12.442;2024-02-23T11:28:33;2.33;;;0.22;;
69502;SDS011;56704;54.242;12.442;2024-02-23T11:31:10;1.13;;;0.32;;
69502;SDS011;56704;54.242;12.442;2024-02-23T11:33:38;2.90;;;0.23;;
69502;SDS011;56704;54.242;12.442;2024-02-23T11:36:05;2.17;;;0.43;;
69502;SDS011;56704;54.242;12.442;2024-02-23T11:38:33;2.05;;;0.20;;
69502;SDS011;56704;54.242;12.442;2024-02-23T11:41:00;1.83;;;0.38;;
69502;SDS011;56704;54.242;12.442;2024-02-23T11:43:27;2.10;;;0.13;;
69502;SDS011;56704;54.242;12.442;2024-02-23T11:45:54;2.37;;;0.33;;
69502;SDS011;56704;54.242;12.442;2024-02-23T11:48:21;1.58;;;0.30;;
69502;SDS011;56704;54.242;12.442;2024-02-23T11:50:47;2.92;;;0.52;;
69502;SDS011;56704;54.242;12.442;2024-02-23T11:53:15;3.25;;;0.52;;
69502;SDS011;56704;54.242;12.442;2024-02-23T11:55:45;1.20;;;0.30;;
69502;SDS011;56704;54.242;12.442;2024-02-23T11:58:13;1.77;;;0.20;;
69502;SDS011;56704;54.242;12.442;2024-02-23T12:00:41;1.35;;;0.20;;
69502;SDS011;56704;54.242;12.442;2024-02-23T12:03:07;1.52;;;0.20;;
69502;SDS011;56704;54.242;12.442;2024-02-23T12:05:35;2.35;;;0.40;;
69502;SDS011;56704;54.242;12.442;2024-02-23T12:08:01;1.38;;;0.20;;
69502;SDS011;56704;54.242;12.442;2024-02-23T12:10:29;2.40;;;0.20;;
69502;SDS011;56704;54.242;12.442;2024-02-23T12:12:57;4.53;;;0.30;;
69502;SDS011;56704;54.242;12.442;2024-02-23T12:15:25;2.38;;;0.30;;
69502;SDS011;56704;54.242;12.442;2024-02-23T12:17:53;1.67;;;0.25;;
69502;SDS011;56704;54.242;12.442;2024-02-23T12:20:20;1.55;;;0.20;;
69502;SDS011;56704;54.242;12.442;2024-02-23T12:22:48;1.17;;;0.30;;
69502;SDS011;56704;54.242;12.442;2024-02-23T12:25:14;2.67;;;0.30;;
69502;SDS011;56704;54.242;12.442;2024-02-23T12:27:41;1.23;;;0.20;;
69502;SDS011;56704;54.242;12.442;2024-02-23T12:30:14;4.43;;;0.50;;
69502;SDS011;56704;54.242;12.442;2024-02-23T12:32:42;2.75;;;0.20;;
69502;SDS011;56704;54.242;12.442;2024-02-23T12:35:10;1.40;;;0.10;;
69502;SDS011;56704;54.242;12.442;2024-02-23T12:37:36;1.40;;;0.20;;
69502;SDS011;56704;54.242;12.442;2024-02-23T12:40:04;1.15;;;0.20;;
69502;SDS011;56704;54.242;12.442;2024-02-23T12:42:32;1.33;;;0.20;;
69502;SDS011;56704;54.242;12.442;2024-02-23T12:44:59;3.78;;;0.40;;
69502;SDS011;56704;54.242;12.442;2024-02-23T12:47:26;2.63;;;0.30;;
69502;SDS011;56704;54.242;12.442;2024-02-23T12:49:53;2.20;;;0.32;;
69502;SDS011;56704;54.242;12.442;2024-02-23T12:52:20;1.02;;;0.20;;
69502;SDS011;56704;54.242;12.442;2024-02-23T12:54:46;1.02;;;0.20;;
69502;SDS011;56704;54.242;12.442;2024-02-23T12:57:13;3.63;;;0.35;;
69502;SDS011;56704;54.242;12.442;2024-02-23T12:59:39;1.73;;;0.30;;
69502;SDS011;56704;54.242;12.442;2024-02-23T13:02:06;1.33;;;0.20;;
69502;SDS011;56704;54.242;12.442;2024-02-23T13:04:37;1.42;;;0.30;;
69502;SDS011;56704;54.242;12.442;2024-02-23T13:07:04;4.18;;;0.40;;
69502;SDS011;56704;54.242;12.442;2024-02-23T13:09:31;1.73;;;0.35;;
69502;SDS011;56704;54.242;12.442;2024-02-23T13:11:57;3.10;;;1.03;;
69502;SDS011;56704;54.242;12.442;2024-02-23T13:14:24;2.70;;;0.30;;
69502;SDS011;56704;54.242;12.442;2024-02-23T13:16:50;1.83;;;0.30;;
69502;SDS011;56704;54.242;12.442;2024-02-23T13:19:17;2.88;;;0.50;;
69502;SDS011;56704;54.242;12.442;2024-02-23T13:21:45;2.00;;;0.30;;
69502;SDS011;56704;54.242;12.442;2024-02-23T13:24:11;2.07;;;0.33;;
69502;SDS011;56704;54.242;12.442;2024-02-23T13:26:38;2.08;;;0.30;;
69502;SDS011;56704;54.242;12.442;2024-02-23T13:29:05;1.58;;;0.30;;
69502;SDS011;56704;54.242;12.442;2024-02-23T13:31:32;4.25;;;0.60;;
69502;SDS011;56704;54.242;12.442;2024-02-23T13:33:59;2.33;;;0.40;;
69502;SDS011;56704;54.242;12.442;2024-02-23T13:36:25;2.60;;;0.43;;
69502;SDS011;56704;54.242;12.442;2024-02-23T13:38:53;6.38;;;0.63;;
69502;SDS011;56704;54.242;12.442;2024-02-23T13:41:20;1.85;;;0.40;;
69502;SDS011;56704;54.242;12.442;2024-02-23T13:43:46;2.03;;;0.40;;
69502;SDS011;56704;54.242;12.442;2024-02-23T13:46:13;3.17;;;0.57;;
69502;SDS011;56704;54.242;12.442;2024-02-23T13:48:40;2.47;;;0.30;;
69502;SDS011;56704;54.242;12.442;2024-02-23T13:51:06;3.38;;;0.43;;
69502;SDS011;56704;54.242;12.442;2024-02-23T13:53:33;1.40;;;0.20;;
69502;SDS011;56704;54.242;12.442;2024-02-23T13:56:03;2.42;;;0.30;;
69502;SDS011;56704;54.242;12.442;2024-02-23T13:58:30;1.80;;;0.30;;
69502;SDS011;56704;54.242;12.442;2024-02-23T14:00:57;2.30;;;0.30;;
69502;SDS011;56704;54.242;12.442;2024-02-23T14:03:24;2.97;;;0.30;;
69502;SDS011;56704;54.242;12.442;2024-02-23T14:05:50;2.28;;;0.38;;
69502;SDS011;56704;54.242;12.442;2024-02-23T14:08:17;2.20;;;0.30;;
69502;SDS011;56704;54.242;12.442;2024-02-23T14:10:44;2.88;;;0.32;;
69502;SDS011;56704;54.242;12.442;2024-02-23T14:13:12;2.17;;;0.33;;
69502;SDS011;56704;54.242;12.442;2024-02-23T14:15:38;4.45;;;0.32;;
69502;SDS011;56704;54.242;12.442;2024-02-23T14:18:05;1.35;;;0.38;;
69502;SDS011;56704;54.242;12.442;2024-02-23T14:20:32;2.13;;;0.17;;
69502;SDS011;56704;54.242;12.442;2024-02-23T14:22:58;2.05;;;0.30;;
69502;SDS011;56704;54.242;12.442;2024-02-23T14:25:25;3.87;;;0.20;;
69502;SDS011;56704;54.242;12.442;2024-02-23T14:27:52;4.00;;;0.20;;
69502;SDS011;56704;54.242;12.442;2024-02-23T14:30:21;1.50;;;0.20;;
69502;SDS011;56704;54.242;12.442;2024-02-23T14:32:48;1.98;;;0.20;;
69502;SDS011;56704;54.242;12.442;2024-02-23T14:35:15;1.33;;;0.10;;
69502;SDS011;56704;54.242;12.442;2024-02-23T14:37:42;1.30;;;0.20;;
69502;SDS011;56704;54.242;12.442;2024-02-23T14:40:09;2.47;;;0.38;;
69502;SDS011;56704;54.242;12.442;2024-02-23T14:42:36;2.22;;;0.40;;
69502;SDS011;56704;54.242;12.442;2024-02-23T14:45:04;2.30;;;0.20;;
69502;SDS011;56704;54.242;12.442;2024-02-23T14:47:33;4.65;;;0.30;;